Time,TemperatureF,DewpointF,PressureIn,WindDirection,WindDirectionDegrees,WindSpeedMPH,WindSpeedGustMPH,Humidity,HourlyPrecipIn,Conditions,Clouds,dailyrainin,SoftwareType,DateUTC
2013-04-21 00:03:00,48.0,25.0,30.22,NNW,337,4.0,18.0,40,0.00,,,0.00,,2013-04-21 04:03:00,
2013-04-21 00:12:00,47.0,25.0,30.23,North,350,9.0,16.0,41,0.00,,,0.00,,2013-04-21 04:12:00,
2013-04-21 00:23:00,47.0,25.0,30.23,North,350,9.0,16.0,41,0.00,,,0.00,,2013-04-21 04:23:00,
2013-04-21 00:33:00,46.0,24.0,30.24,NNW,346,5.0,12.0,42,0.00,,,0.00,,2013-04-21 04:33:00,
2013-04-21 00:42:00,46.0,24.0,30.24,NNW,346,5.0,12.0,42,0.00,,,0.00,,2013-04-21 04:42:00,
2013-04-21 00:52:00,46.0,24.0,30.24,NNW,331,5.0,12.0,41,0.00,,,0.00,,2013-04-21 04:52:00,
2013-04-21 01:02:00,45.0,23.0,30.26,NNW,330,2.0,9.0,42,0.00,,,0.00,,2013-04-21 05:02:00,
2013-04-21 01:12:00,45.0,23.0,30.26,NNW,330,2.0,9.0,42,0.00,,,0.00,,2013-04-21 05:12:00,
2013-04-21 01:22:00,44.0,23.0,30.26,North,350,7.0,14.0,44,0.00,,,0.00,,2013-04-21 05:22:00,
2013-04-21 01:32:00,43.0,20.0,30.27,NW,323,4.0,12.0,40,0.00,,,0.00,,2013-04-21 05:32:00,
2013-04-21 01:42:00,43.0,20.0,30.27,NW,323,4.0,12.0,40,0.00,,,0.00,,2013-04-21 05:42:00,
2013-04-21 01:52:00,42.0,19.0,30.29,NNW,344,4.0,13.0,40,0.00,,,0.00,,2013-04-21 05:52:00,
2013-04-21 02:01:00,42.0,19.0,30.29,NW,321,3.0,12.0,40,0.00,,,0.00,,2013-04-21 06:01:00,
2013-04-21 02:12:00,41.0,18.0,30.30,NNW,335,5.0,13.0,39,0.00,,,0.00,,2013-04-21 06:12:00,
2013-04-21 02:22:00,41.0,18.0,30.30,NNW,335,5.0,13.0,39,0.00,,,0.00,,2013-04-21 06:22:00,
2013-04-21 02:32:00,41.0,18.0,30.30,NNW,345,2.0,12.0,39,0.00,,,0.00,,2013-04-21 06:32:00,
2013-04-21 02:42:00,41.0,18.0,30.30,NNW,345,2.0,12.0,39,0.00,,,0.00,,2013-04-21 06:42:00,
2013-04-21 02:51:00,40.0,17.0,30.32,North,356,5.0,10.0,39,0.00,,,0.00,,2013-04-21 06:51:00,
2013-04-21 03:01:00,40.0,18.0,30.32,NNW,342,3.0,12.0,40,0.00,,,0.00,,2013-04-21 07:01:00,
2013-04-21 03:12:00,40.0,17.0,30.32,NNW,346,5.0,13.0,39,0.00,,,0.00,,2013-04-21 07:12:00,
2013-04-21 03:21:00,40.0,17.0,30.32,NNW,346,5.0,13.0,39,0.00,,,0.00,,2013-04-21 07:21:00,
2013-04-21 03:32:00,40.0,17.0,30.32,North,349,5.0,16.0,39,0.00,,,0.00,,2013-04-21 07:32:00,
2013-04-21 03:42:00,40.0,17.0,30.32,North,349,5.0,16.0,39,0.00,,,0.00,,2013-04-21 07:42:00,
2013-04-21 03:52:00,39.0,17.0,30.33,NNW,340,2.0,12.0,40,0.00,,,0.00,,2013-04-21 07:52:00,
2013-04-21 04:01:00,39.0,17.0,30.33,NNW,332,4.0,13.0,41,0.00,,,0.00,,2013-04-21 08:01:00,
2013-04-21 04:12:00,39.0,18.0,30.34,NW,317,4.0,12.0,42,0.00,,,0.00,,2013-04-21 08:12:00,
2013-04-21 04:21:00,39.0,18.0,30.34,NW,317,4.0,12.0,42,0.00,,,0.00,,2013-04-21 08:21:00,
2013-04-21 04:32:00,39.0,18.0,30.35,NNW,346,1.0,7.0,43,0.00,,,0.00,,2013-04-21 08:32:00,
2013-04-21 04:42:00,39.0,18.0,30.35,NNW,346,1.0,7.0,43,0.00,,,0.00,,2013-04-21 08:42:00,
2013-04-21 04:52:00,38.0,18.0,30.36,NNW,328,1.0,8.0,44,0.00,,,0.00,,2013-04-21 08:52:00,
2013-04-21 05:02:00,38.0,18.0,30.36,North,359,2.0,6.0,44,0.00,,,0.00,,2013-04-21 09:02:00,
2013-04-21 05:12:00,38.0,20.0,30.37,NNW,347,1.0,7.0,47,0.00,,,0.00,,2013-04-21 09:12:00,
2013-04-21 05:21:00,38.0,20.0,30.37,NNW,347,1.0,7.0,47,0.00,,,0.00,,2013-04-21 09:21:00,
2013-04-21 05:32:00,38.0,20.0,30.38,NNW,343,1.0,5.0,47,0.00,,,0.00,,2013-04-21 09:32:00,
2013-04-21 05:43:00,38.0,20.0,30.38,NNW,343,1.0,5.0,47,0.00,,,0.00,,2013-04-21 09:43:00,
2013-04-21 05:53:00,38.0,20.0,30.38,NNW,332,2.0,6.0,47,0.00,,,0.00,,2013-04-21 09:53:00,
2013-04-21 06:03:00,37.0,19.0,30.40,North,0,2.0,8.0,48,0.00,,,0.00,,2013-04-21 10:03:00,
2013-04-21 06:12:00,37.0,19.0,30.41,North,4,2.0,5.0,48,0.00,,,0.00,,2013-04-21 10:12:00,
2013-04-21 06:22:00,37.0,19.0,30.41,North,4,2.0,5.0,48,0.00,,,0.00,,2013-04-21 10:22:00,
2013-04-21 06:32:00,37.0,20.0,30.41,North,0,0.0,6.0,49,0.00,,,0.00,,2013-04-21 10:32:00,
2013-04-21 06:42:00,37.0,20.0,30.41,North,0,0.0,6.0,49,0.00,,,0.00,,2013-04-21 10:42:00,
2013-04-21 06:52:00,37.0,20.0,30.42,North,11,2.0,5.0,49,0.00,,,0.00,,2013-04-21 10:52:00,
2013-04-21 07:02:00,37.0,20.0,30.44,North,6,1.0,3.0,49,0.00,,,0.00,,2013-04-21 11:02:00,
2013-04-21 07:12:00,37.0,20.0,30.44,North,6,1.0,3.0,49,0.00,,,0.00,,2013-04-21 11:12:00,
2013-04-21 07:22:00,38.0,20.0,30.44,North,6,0.0,2.0,48,0.00,,,0.00,,2013-04-21 11:22:00,
2013-04-21 07:34:00,39.0,20.0,30.46,NNE,20,4.0,7.0,47,0.00,,,0.00,,2013-04-21 11:34:00,
2013-04-21 07:42:00,39.0,19.0,30.47,NNE,18,3.0,7.0,45,0.00,,,0.00,,2013-04-21 11:42:00,
2013-04-21 07:52:00,39.0,19.0,30.47,NNE,18,3.0,7.0,45,0.00,,,0.00,,2013-04-21 11:52:00,
2013-04-21 08:02:00,39.0,19.0,30.47,NNE,13,3.0,10.0,44,0.00,,,0.00,,2013-04-21 12:02:00,
2013-04-21 08:12:00,39.0,19.0,30.48,North,0,2.0,10.0,44,0.00,,,0.00,,2013-04-21 12:12:00,
2013-04-21 08:22:00,39.0,19.0,30.48,North,0,2.0,10.0,44,0.00,,,0.00,,2013-04-21 12:22:00,
2013-04-21 08:32:00,39.0,19.0,30.49,North,1,3.0,8.0,45,0.00,,,0.00,,2013-04-21 12:32:00,
2013-04-21 08:42:00,39.0,19.0,30.49,North,1,3.0,8.0,45,0.00,,,0.00,,2013-04-21 12:42:00,
2013-04-21 08:52:00,40.0,20.0,30.49,NNE,30,4.0,12.0,45,0.00,,,0.00,,2013-04-21 12:52:00,
2013-04-21 09:01:00,40.0,20.0,30.49,North,0,2.0,7.0,45,0.00,,,0.00,,2013-04-21 13:01:00,
2013-04-21 09:12:00,41.0,21.0,30.49,NNE,24,6.0,12.0,44,0.00,,,0.00,,2013-04-21 13:12:00,
2013-04-21 09:21:00,41.0,21.0,30.49,NNE,24,6.0,12.0,44,0.00,,,0.00,,2013-04-21 13:21:00,
2013-04-21 09:32:00,41.0,21.0,30.50,NNE,23,2.0,6.0,45,0.00,,,0.00,,2013-04-21 13:32:00,
2013-04-21 09:42:00,41.0,21.0,30.50,NNE,23,2.0,6.0,45,0.00,,,0.00,,2013-04-21 13:42:00,
2013-04-21 09:52:00,41.0,21.0,30.50,NNE,18,2.0,8.0,44,0.00,,,0.00,,2013-04-21 13:52:00,
2013-04-21 10:02:00,42.0,22.0,30.51,NNE,17,1.0,8.0,44,0.00,,,0.00,,2013-04-21 14:02:00,
2013-04-21 10:11:00,42.0,22.0,30.51,NNE,17,1.0,8.0,44,0.00,,,0.00,,2013-04-21 14:11:00,
2013-04-21 10:21:00,42.0,21.0,30.52,NNW,337,4.0,10.0,42,0.00,,,0.00,,2013-04-21 14:21:00,
2013-04-21 10:32:00,43.0,22.0,30.52,NNE,25,3.0,12.0,42,0.00,,,0.00,,2013-04-21 14:32:00,
2013-04-21 10:42:00,43.0,22.0,30.52,NNE,25,3.0,12.0,42,0.00,,,0.00,,2013-04-21 14:42:00,
2013-04-21 10:52:00,43.0,21.0,30.53,North,349,5.0,10.0,41,0.00,,,0.00,,2013-04-21 14:52:00,
2013-04-21 11:02:00,43.0,21.0,30.53,NNW,345,3.0,7.0,41,0.00,,,0.00,,2013-04-21 15:02:00,
2013-04-21 11:11:00,43.0,21.0,30.53,NNW,345,3.0,7.0,41,0.00,,,0.00,,2013-04-21 15:11:00,
2013-04-21 11:22:00,44.0,19.0,30.53,North,0,3.0,7.0,37,0.00,,,0.00,,2013-04-21 15:22:00,
2013-04-21 11:33:00,43.0,19.0,30.53,North,0,4.0,9.0,38,0.00,,,0.00,,2013-04-21 15:33:00,
2013-04-21 11:43:00,43.0,19.0,30.53,North,0,4.0,9.0,38,0.00,,,0.00,,2013-04-21 15:43:00,
2013-04-21 11:53:00,45.0,20.0,30.53,NNE,14,2.0,7.0,37,0.00,,,0.00,,2013-04-21 15:53:00,
2013-04-21 12:03:00,45.0,19.0,30.53,NNE,28,2.0,12.0,35,0.00,,,0.00,,2013-04-21 16:03:00,
2013-04-21 12:12:00,45.0,19.0,30.53,NW,322,2.0,8.0,35,0.00,,,0.00,,2013-04-21 16:12:00,
2013-04-21 12:23:00,45.0,19.0,30.53,NW,322,2.0,8.0,35,0.00,,,0.00,,2013-04-21 16:23:00,
2013-04-21 12:33:00,45.0,19.0,30.53,North,358,3.0,7.0,35,0.00,,,0.00,,2013-04-21 16:33:00,
2013-04-21 12:42:00,45.0,19.0,30.53,North,358,3.0,7.0,35,0.00,,,0.00,,2013-04-21 16:42:00,
2013-04-21 12:53:00,46.0,19.0,30.53,North,351,3.0,8.0,33,0.00,,,0.00,,2013-04-21 16:53:00,
2013-04-21 13:02:00,46.0,18.0,30.53,North,11,5.0,12.0,32,0.00,,,0.00,,2013-04-21 17:02:00,
2013-04-21 13:12:00,47.0,19.0,30.53,North,8,3.0,8.0,32,0.00,,,0.00,,2013-04-21 17:12:00,
2013-04-21 13:23:00,47.0,19.0,30.53,North,8,3.0,8.0,32,0.00,,,0.00,,2013-04-21 17:23:00,
2013-04-21 13:32:00,48.0,20.0,30.52,NE,37,5.0,13.0,32,0.00,,,0.00,,2013-04-21 17:32:00,
2013-04-21 13:42:00,48.0,20.0,30.52,NE,37,5.0,13.0,32,0.00,,,0.00,,2013-04-21 17:42:00,
2013-04-21 13:52:00,48.0,18.0,30.52,North,0,4.0,10.0,30,0.00,,,0.00,,2013-04-21 17:52:00,
2013-04-21 14:02:00,48.0,18.0,30.52,NE,36,3.0,12.0,30,0.00,,,0.00,,2013-04-21 18:02:00,
2013-04-21 14:11:00,48.0,18.0,30.52,NE,36,3.0,12.0,30,0.00,,,0.00,,2013-04-21 18:11:00,
2013-04-21 14:22:00,48.0,18.0,30.52,NNE,24,3.0,12.0,30,0.00,,,0.00,,2013-04-21 18:22:00,
2013-04-21 14:32:00,50.0,17.0,30.52,NNE,23,2.0,9.0,27,0.00,,,0.00,,2013-04-21 18:32:00,
2013-04-21 14:42:00,50.0,17.0,30.52,NNE,23,2.0,9.0,27,0.00,,,0.00,,2013-04-21 18:42:00,
2013-04-21 14:52:00,51.0,17.0,30.52,NW,319,3.0,9.0,26,0.00,,,0.00,,2013-04-21 18:52:00,
2013-04-21 15:02:00,51.0,17.0,30.51,NNW,345,5.0,12.0,26,0.00,,,0.00,,2013-04-21 19:02:00,
2013-04-21 15:12:00,51.0,17.0,30.51,NNW,345,5.0,12.0,26,0.00,,,0.00,,2013-04-21 19:12:00,
2013-04-21 15:21:00,50.0,16.0,30.51,NNW,347,1.0,8.0,26,0.00,,,0.00,,2013-04-21 19:21:00,
2013-04-21 15:32:00,51.0,16.0,30.50,NE,50,5.0,8.0,25,0.00,,,0.00,,2013-04-21 19:32:00,
2013-04-21 15:42:00,51.0,16.0,30.50,NE,50,5.0,8.0,25,0.00,,,0.00,,2013-04-21 19:42:00,
2013-04-21 15:52:00,50.0,16.0,30.50,NE,44,1.0,7.0,26,0.00,,,0.00,,2013-04-21 19:52:00,
2013-04-21 16:02:00,51.0,17.0,30.50,NE,37,2.0,14.0,26,0.00,,,0.00,,2013-04-21 20:02:00,
2013-04-21 16:11:00,51.0,17.0,30.50,NE,37,2.0,14.0,26,0.00,,,0.00,,2013-04-21 20:11:00,
2013-04-21 16:22:00,51.0,17.0,30.49,NNE,28,0.0,3.0,26,0.00,,,0.00,,2013-04-21 20:22:00,
2013-04-21 16:32:00,51.0,16.0,30.50,NNE,27,2.0,6.0,24,0.00,,,0.00,,2013-04-21 20:32:00,
2013-04-21 16:42:00,51.0,16.0,30.50,NNE,27,2.0,6.0,24,0.00,,,0.00,,2013-04-21 20:42:00,
2013-04-21 16:52:00,51.0,17.0,30.50,NE,34,1.0,3.0,26,0.00,,,0.00,,2013-04-21 20:52:00,
2013-04-21 17:02:00,51.0,16.0,30.50,NNE,17,4.0,7.0,24,0.00,,,0.00,,2013-04-21 21:02:00,
2013-04-21 17:12:00,52.0,17.0,30.50,North,11,0.0,6.0,25,0.00,,,0.00,,2013-04-21 21:12:00,
2013-04-21 17:21:00,52.0,17.0,30.50,North,11,0.0,6.0,25,0.00,,,0.00,,2013-04-21 21:21:00,
2013-04-21 17:33:00,52.0,16.0,30.50,NNE,25,1.0,6.0,24,0.00,,,0.00,,2013-04-21 21:33:00,
2013-04-21 17:43:00,52.0,16.0,30.50,NNE,25,1.0,6.0,24,0.00,,,0.00,,2013-04-21 21:43:00,
2013-04-21 17:53:00,52.0,16.0,30.50,NNE,21,0.0,3.0,24,0.00,,,0.00,,2013-04-21 21:53:00,
2013-04-21 18:02:00,50.0,20.0,30.51,SSE,165,5.0,10.0,30,0.00,,,0.00,,2013-04-21 22:02:00,
2013-04-21 18:12:00,49.0,27.0,30.51,SSW,195,5.0,12.0,42,0.00,,,0.00,,2013-04-21 22:12:00,
2013-04-21 18:22:00,49.0,27.0,30.51,SSW,195,5.0,12.0,42,0.00,,,0.00,,2013-04-21 22:22:00,
2013-04-21 18:33:00,48.0,26.0,30.52,South,175,4.0,9.0,42,0.00,,,0.00,,2013-04-21 22:33:00,
2013-04-21 18:43:00,48.0,26.0,30.52,South,175,4.0,9.0,42,0.00,,,0.00,,2013-04-21 22:43:00,
2013-04-21 18:52:00,48.0,26.0,30.52,SSW,199,6.0,10.0,42,0.00,,,0.00,,2013-04-21 22:52:00,
2013-04-21 19:02:00,47.0,27.0,30.52,South,191,4.0,9.0,45,0.00,,,0.00,,2013-04-21 23:02:00,
2013-04-21 19:12:00,47.0,27.0,30.52,South,191,4.0,9.0,45,0.00,,,0.00,,2013-04-21 23:12:00,
2013-04-21 19:22:00,46.0,27.0,30.52,South,191,3.0,7.0,47,0.00,,,0.00,,2013-04-21 23:22:00,
2013-04-21 19:32:00,46.0,27.0,30.52,South,191,1.0,6.0,47,0.00,,,0.00,,2013-04-21 23:32:00,
2013-04-21 19:42:00,46.0,27.0,30.52,South,191,1.0,6.0,47,0.00,,,0.00,,2013-04-21 23:42:00,
2013-04-21 19:52:00,46.0,26.0,30.53,South,191,1.0,5.0,46,0.00,,,0.00,,2013-04-21 23:52:00,
2013-04-21 20:01:00,45.0,26.0,30.53,South,191,0.0,3.0,47,0.00,,,0.00,,2013-04-22 00:01:00,
2013-04-21 20:11:00,45.0,26.0,30.53,South,191,0.0,3.0,47,0.00,,,0.00,,2013-04-22 00:11:00,
2013-04-21 20:22:00,45.0,23.0,30.53,South,191,2.0,7.0,42,0.00,,,0.00,,2013-04-22 00:22:00,
2013-04-21 20:32:00,45.0,24.0,30.53,South,191,1.0,3.0,44,0.00,,,0.00,,2013-04-22 00:32:00,
2013-04-21 20:42:00,45.0,24.0,30.53,South,191,1.0,3.0,44,0.00,,,0.00,,2013-04-22 00:42:00,
2013-04-21 20:51:00,45.0,27.0,30.55,South,191,2.0,6.0,48,0.00,,,0.00,,2013-04-22 00:51:00,
2013-04-21 21:01:00,45.0,27.0,30.56,South,191,0.0,2.0,50,0.00,,,0.00,,2013-04-22 01:01:00,
2013-04-21 21:12:00,45.0,27.0,30.56,South,191,0.0,2.0,50,0.00,,,0.00,,2013-04-22 01:12:00,
2013-04-21 21:22:00,44.0,28.0,30.56,South,191,0.0,2.0,52,0.00,,,0.00,,2013-04-22 01:22:00,
2013-04-21 21:32:00,44.0,28.0,30.57,South,191,0.0,0.0,52,0.00,,,0.00,,2013-04-22 01:32:00,
2013-04-21 21:42:00,44.0,28.0,30.57,South,191,0.0,0.0,52,0.00,,,0.00,,2013-04-22 01:42:00,
2013-04-21 21:52:00,44.0,28.0,30.57,South,191,0.0,0.0,54,0.00,,,0.00,,2013-04-22 01:52:00,
2013-04-21 22:02:00,44.0,30.0,30.57,South,191,0.0,0.0,57,0.00,,,0.00,,2013-04-22 02:02:00,
2013-04-21 22:11:00,43.0,29.0,30.57,South,191,0.0,0.0,58,0.00,,,0.00,,2013-04-22 02:11:00,
2013-04-21 22:21:00,43.0,29.0,30.57,South,191,0.0,0.0,58,0.00,,,0.00,,2013-04-22 02:21:00,
2013-04-21 22:32:00,42.0,29.0,30.56,South,191,0.0,0.0,60,0.00,,,0.00,,2013-04-22 02:32:00,
2013-04-21 22:42:00,42.0,29.0,30.56,South,191,0.0,0.0,60,0.00,,,0.00,,2013-04-22 02:42:00,
2013-04-21 22:52:00,42.0,30.0,30.56,South,191,0.0,2.0,61,0.00,,,0.00,,2013-04-22 02:52:00,
2013-04-21 23:02:00,43.0,30.0,30.57,South,191,1.0,2.0,61,0.00,,,0.00,,2013-04-22 03:02:00,
2013-04-21 23:11:00,43.0,30.0,30.57,South,191,1.0,2.0,61,0.00,,,0.00,,2013-04-22 03:11:00,
2013-04-21 23:22:00,43.0,30.0,30.57,South,191,0.0,2.0,60,0.00,,,0.00,,2013-04-22 03:22:00,
2013-04-21 23:33:00,43.0,30.0,30.57,South,191,0.0,0.0,61,0.00,,,0.00,,2013-04-22 03:33:00,
2013-04-21 23:43:00,43.0,30.0,30.57,South,191,0.0,0.0,61,0.00,,,0.00,,2013-04-22 03:43:00,
2013-04-21 23:52:00,43.0,30.0,30.58,South,191,0.0,1.0,61,0.00,,,0.00,,2013-04-22 03:52:00,